createdAt,value
2023-03-04T00:02:47.272Z,54.08
2023-03-04T00:05:34.686Z,46.65
2023-03-04T00:08:23.864Z,51.17
2023-03-04T00:11:11.370Z,51.05
2023-03-04T00:13:59.766Z,49.00
2023-03-04T00:16:49.164Z,48.15
2023-03-04T00:19:36.711Z,47.65
2023-03-04T00:22:24.351Z,48.20
2023-03-04T00:25:13.451Z,53.67
2023-03-04T00:28:01.127Z,50.47
2023-03-04T00:30:48.557Z,50.28
2023-03-04T00:33:37.349Z,53.15
2023-03-04T00:36:25.150Z,43.10
2023-03-04T00:39:12.970Z,42.63
2023-03-04T00:42:02.003Z,44.90
2023-03-04T00:44:51.546Z,45.92
2023-03-04T00:47:39.372Z,45.03
2023-03-04T00:50:27.249Z,45.83
2023-03-04T00:53:14.878Z,44.42
2023-03-04T00:56:02.242Z,38.58
2023-03-04T00:58:51.182Z,45.03
2023-03-04T01:01:39.096Z,40.75
2023-03-04T01:04:26.374Z,45.75
2023-03-04T01:07:14.442Z,40.92
2023-03-04T01:10:01.900Z,36.58
2023-03-04T01:12:49.625Z,44.20
2023-03-04T01:15:38.350Z,38.92
2023-03-04T01:18:26.676Z,42.53
2023-03-04T01:21:14.429Z,43.90
2023-03-04T01:24:01.818Z,38.72
2023-03-04T01:26:49.652Z,39.03
2023-03-04T01:29:40.360Z,46.00
2023-03-04T01:32:29.192Z,43.35
2023-03-04T01:35:16.966Z,38.72
2023-03-04T01:38:05.271Z,38.33
2023-03-04T01:40:53.180Z,43.17
2023-03-04T01:43:41.469Z,42.95
2023-03-04T01:46:29.732Z,39.40
2023-03-04T01:49:20.266Z,38.20
2023-03-04T01:52:11.822Z,37.42
2023-03-04T01:54:59.292Z,43.85
2023-03-04T01:57:47.852Z,38.53
2023-03-04T02:00:37.327Z,40.95
2023-03-04T02:03:26.012Z,36.90
2023-03-04T02:06:15.792Z,43.28
2023-03-04T02:09:03.423Z,43.67
2023-03-04T02:11:52.026Z,35.17
2023-03-04T02:14:40.533Z,44.65
2023-03-04T02:17:28.660Z,41.75
2023-03-04T02:20:26.662Z,40.83
2023-03-04T02:23:22.717Z,43.00
2023-03-04T02:26:15.244Z,41.73
2023-03-04T02:29:04.765Z,38.47
2023-03-04T02:31:54.834Z,44.03
2023-03-04T02:34:50.185Z,47.35
2023-03-04T02:37:37.537Z,43.03
2023-03-04T02:40:28.314Z,40.28
2023-03-04T02:43:17.055Z,42.33
2023-03-04T02:46:06.000Z,43.28
2023-03-04T02:48:54.292Z,45.25
2023-03-04T02:51:43.374Z,40.45
2023-03-04T02:54:31.433Z,42.40
2023-03-04T02:57:19.344Z,43.50
2023-03-04T03:00:14.618Z,42.40
2023-03-04T03:03:03.530Z,45.30
2023-03-04T03:05:51.233Z,42.05
2023-03-04T03:08:39.068Z,40.95
2023-03-04T03:11:26.837Z,43.30
2023-03-04T03:14:15.993Z,45.60
2023-03-04T03:17:05.553Z,43.75
2023-03-04T03:19:53.175Z,45.38
2023-03-04T03:22:40.883Z,47.10
2023-03-04T03:25:30.262Z,39.83
2023-03-04T03:28:18.594Z,44.10
2023-03-04T03:31:06.868Z,44.72
2023-03-04T03:33:55.684Z,41.95
2023-03-04T03:36:43.474Z,44.22
2023-03-04T03:39:31.218Z,46.55
2023-03-04T03:42:18.808Z,44.10
2023-03-04T03:45:07.327Z,39.95
2023-03-04T03:47:54.933Z,43.97
2023-03-04T03:50:43.615Z,35.97
2023-03-04T03:53:31.060Z,39.22
2023-03-04T03:56:18.571Z,45.60
2023-03-04T03:59:05.982Z,37.05
2023-03-04T04:01:53.690Z,38.78
2023-03-04T04:04:41.209Z,41.60
2023-03-04T04:07:30.129Z,38.42
2023-03-04T04:10:17.842Z,40.15
2023-03-04T04:13:05.772Z,37.55
2023-03-04T04:15:53.581Z,39.60
2023-03-04T04:18:40.937Z,39.92
2023-03-04T04:21:28.351Z,41.15
2023-03-04T04:24:17.689Z,36.10
2023-03-04T04:27:05.567Z,37.95
2023-03-04T04:29:53.121Z,36.13
2023-03-04T04:32:40.638Z,39.58
2023-03-04T04:35:28.136Z,36.28
2023-03-04T04:38:15.865Z,33.40
2023-03-04T04:41:05.422Z,43.15
2023-03-04T04:43:53.481Z,38.65
2023-03-04T04:46:41.790Z,37.92
2023-03-04T04:49:29.454Z,33.05
2023-03-04T04:52:16.760Z,36.92
2023-03-04T04:55:04.421Z,33.90
2023-03-04T04:57:53.173Z,36.55
2023-03-04T05:00:40.968Z,35.47
2023-03-04T05:03:28.580Z,38.28
2023-03-04T05:06:16.292Z,35.47
2023-03-04T05:09:04.531Z,40.00
2023-03-04T05:11:52.091Z,36.45
2023-03-04T05:14:41.395Z,35.72
2023-03-04T05:17:28.732Z,35.90
2023-03-04T05:20:16.612Z,36.50
2023-03-04T05:23:04.719Z,35.70
2023-03-04T05:25:52.530Z,32.83
2023-03-04T05:28:40.126Z,41.10
2023-03-04T05:31:29.206Z,34.78
2023-03-04T05:34:17.046Z,39.17
2023-03-04T05:37:04.832Z,35.38
2023-03-04T05:39:52.385Z,38.08
2023-03-04T05:42:39.971Z,32.17
2023-03-04T05:45:28.193Z,35.75
2023-03-04T05:48:17.536Z,33.80
2023-03-04T05:51:05.121Z,32.55
2023-03-04T05:53:52.548Z,36.92
2023-03-04T05:56:40.167Z,33.10
2023-03-04T05:59:27.706Z,35.60
2023-03-04T06:02:15.177Z,32.15
2023-03-04T06:05:04.314Z,29.33
2023-03-04T06:07:51.751Z,30.80
2023-03-04T06:10:39.476Z,29.58
2023-03-04T06:13:27.890Z,31.52
2023-03-04T06:16:15.671Z,32.33
2023-03-04T06:19:03.196Z,30.48
2023-03-04T06:21:52.323Z,28.70
2023-03-04T06:24:40.218Z,30.98
2023-03-04T06:27:28.459Z,26.42
2023-03-04T06:30:16.789Z,30.90
2023-03-04T06:33:04.045Z,25.88
2023-03-04T06:35:55.479Z,28.10
2023-03-04T06:38:44.611Z,27.92
2023-03-04T06:41:32.302Z,26.33
2023-03-04T06:44:20.108Z,27.08
2023-03-04T06:47:07.905Z,25.02
2023-03-04T06:49:55.668Z,26.80
2023-03-04T06:52:43.602Z,27.25
2023-03-04T06:55:32.444Z,26.70
2023-03-04T06:58:20.115Z,27.60
2023-03-04T07:01:12.874Z,30.70
2023-03-04T07:04:00.623Z,28.08
2023-03-04T07:06:48.732Z,26.15
2023-03-04T07:09:37.002Z,26.80
2023-03-04T07:12:26.045Z,25.55
2023-03-04T07:15:13.772Z,22.92
2023-03-04T07:18:01.184Z,21.58
2023-03-04T07:20:48.616Z,26.35
2023-03-04T07:23:36.623Z,27.23
2023-03-04T07:26:24.302Z,26.35
2023-03-04T07:29:14.147Z,27.35
2023-03-04T07:32:01.762Z,25.40
2023-03-04T07:34:49.251Z,22.73
2023-03-04T07:37:36.693Z,35.60
2023-03-04T07:40:24.282Z,28.45
2023-03-04T07:43:13.714Z,23.27
2023-03-04T07:46:03.904Z,22.98
2023-03-04T07:48:51.301Z,21.70
2023-03-04T07:51:39.104Z,26.60
2023-03-04T07:54:26.759Z,26.55
2023-03-04T07:57:14.205Z,27.05
2023-03-04T08:00:01.493Z,20.55
2023-03-04T08:02:50.838Z,23.38
2023-03-04T08:05:40.706Z,25.73
2023-03-04T08:08:28.434Z,22.20
2023-03-04T08:11:17.838Z,23.48
2023-03-04T08:14:05.886Z,22.13
2023-03-04T08:16:53.303Z,20.60
2023-03-04T08:19:42.463Z,23.60
2023-03-04T08:22:29.838Z,24.25
2023-03-04T08:25:17.264Z,22.30
2023-03-04T08:28:04.732Z,21.13
2023-03-04T08:30:54.815Z,22.27
2023-03-04T08:33:43.258Z,20.40
2023-03-04T08:36:32.491Z,21.65
2023-03-04T08:39:20.854Z,27.52
2023-03-04T08:42:08.422Z,23.67
2023-03-04T08:44:55.945Z,23.65
2023-03-04T08:47:43.539Z,30.20
2023-03-04T08:50:31.092Z,31.23
2023-03-04T08:53:20.789Z,29.50
2023-03-04T08:56:09.785Z,32.42
2023-03-04T08:58:57.154Z,31.10
2023-03-04T09:01:44.704Z,29.92
2023-03-04T09:04:32.285Z,30.40
2023-03-04T09:07:19.937Z,28.75
2023-03-04T09:10:10.668Z,27.10
2023-03-04T09:12:59.098Z,30.33
2023-03-04T09:15:47.560Z,28.98
2023-03-04T09:18:35.043Z,29.40
2023-03-04T09:21:22.568Z,29.85
2023-03-04T09:24:09.952Z,29.10
2023-03-04T09:26:58.665Z,30.63
2023-03-04T09:29:46.313Z,26.33
2023-03-04T09:32:33.941Z,28.98
2023-03-04T09:35:21.712Z,27.77
2023-03-04T09:38:09.226Z,23.17
2023-03-04T09:40:57.310Z,20.55
2023-03-04T09:43:47.730Z,22.67
2023-03-04T09:46:39.806Z,23.30
2023-03-04T09:49:27.561Z,22.42
2023-03-04T09:52:29.086Z,16.13
2023-03-04T09:55:22.314Z,20.95
2023-03-04T09:58:21.652Z,24.33
2023-03-04T10:01:16.752Z,23.23
2023-03-04T10:04:14.166Z,23.65
2023-03-04T10:07:03.707Z,21.73
2023-03-04T10:09:55.039Z,24.05
2023-03-04T10:12:47.556Z,23.67
2023-03-04T10:15:39.096Z,32.70
2023-03-04T10:18:33.988Z,22.58
2023-03-04T10:21:27.595Z,19.08
2023-03-04T10:24:18.261Z,24.55
2023-03-04T10:27:11.776Z,17.67
2023-03-04T10:30:01.765Z,22.10
2023-03-04T10:32:49.080Z,22.13
2023-03-04T10:35:39.602Z,21.50
2023-03-04T10:38:27.252Z,19.55
2023-03-04T10:41:17.278Z,19.35
2023-03-04T10:44:18.707Z,17.30
2023-03-04T10:47:11.662Z,17.75
2023-03-04T10:50:00.988Z,20.95
2023-03-04T10:52:53.299Z,16.08
2023-03-04T10:55:45.492Z,18.42
2023-03-04T10:58:32.841Z,20.40
2023-03-04T11:01:25.431Z,20.13
2023-03-04T11:04:19.129Z,15.07
2023-03-04T11:07:10.764Z,17.58
2023-03-04T11:10:10.270Z,20.70
2023-03-04T11:13:02.118Z,15.77
2023-03-04T11:15:57.911Z,14.93
2023-03-04T11:18:51.427Z,12.90
2023-03-04T11:21:41.793Z,12.93
2023-03-04T11:24:30.948Z,18.85
2023-03-04T11:27:25.128Z,10.48
2023-03-04T11:30:30.325Z,13.50
2023-03-04T11:33:24.583Z,13.77
2023-03-04T11:36:34.084Z,12.07
2023-03-04T11:39:29.002Z,11.13
2023-03-04T11:42:29.534Z,12.98
2023-03-04T11:45:28.701Z,13.13
2023-03-04T11:48:20.710Z,12.65
2023-03-04T11:51:13.101Z,10.90
2023-03-04T11:54:17.108Z,10.32
2023-03-04T11:57:13.199Z,12.57
2023-03-04T12:00:17.237Z,10.25
2023-03-04T12:03:23.602Z,11.65
2023-03-04T12:06:17.193Z,12.00
2023-03-04T12:09:30.556Z,9.00
2023-03-04T12:12:43.872Z,9.93
2023-03-04T12:15:43.242Z,17.27
2023-03-04T12:18:52.719Z,12.35
2023-03-04T12:21:57.847Z,12.25
2023-03-04T12:25:25.769Z,9.30
2023-03-04T12:28:52.390Z,12.63
2023-03-04T12:31:43.802Z,9.43
2023-03-04T12:34:52.659Z,10.80
2023-03-04T12:37:55.303Z,10.57
2023-03-04T12:40:49.065Z,11.38
2023-03-04T12:43:47.805Z,9.07
2023-03-04T12:46:45.619Z,9.57
2023-03-04T12:49:57.115Z,7.75
2023-03-04T12:52:52.802Z,9.68
2023-03-04T12:55:43.322Z,13.27
2023-03-04T12:58:33.723Z,11.63
2023-03-04T13:01:27.952Z,12.40
2023-03-04T13:04:23.622Z,9.60
2023-03-04T13:07:17.723Z,10.38
2023-03-04T13:10:10.604Z,8.38
2023-03-04T13:12:59.498Z,8.32
2023-03-04T13:16:02.223Z,9.68
2023-03-04T13:18:50.028Z,8.93
2023-03-04T13:21:47.449Z,11.15
2023-03-04T13:24:50.713Z,9.15
2023-03-04T13:27:48.694Z,14.63
2023-03-04T13:31:08.474Z,10.05
2023-03-04T13:34:05.778Z,10.73
2023-03-04T13:36:59.262Z,12.45
2023-03-04T13:39:46.886Z,9.05
2023-03-04T13:42:43.102Z,9.57
2023-03-04T13:45:34.238Z,8.25
2023-03-04T13:48:36.443Z,6.80
2023-03-04T13:51:29.750Z,8.65
2023-03-04T13:54:27.607Z,7.13
2023-03-04T13:57:20.651Z,5.40
2023-03-04T14:00:14.668Z,8.38
2023-03-04T14:03:15.244Z,8.30
2023-03-04T14:06:17.066Z,8.25
2023-03-04T14:09:14.991Z,8.75
2023-03-04T14:12:06.408Z,8.30
2023-03-04T14:14:56.236Z,8.95
2023-03-04T14:17:48.322Z,10.70
2023-03-04T14:20:38.711Z,9.90
2023-03-04T14:23:29.643Z,13.23
2023-03-04T14:26:19.809Z,14.43
2023-03-04T14:29:23.696Z,10.93
2023-03-04T14:32:14.087Z,12.15
2023-03-04T14:35:05.832Z,9.88
2023-03-04T14:37:59.251Z,10.07
2023-03-04T14:40:51.642Z,11.05
2023-03-04T14:43:44.479Z,10.73
2023-03-04T14:46:37.438Z,7.78
2023-03-04T14:49:25.134Z,12.63
2023-03-04T14:52:28.468Z,7.97
2023-03-04T14:55:24.689Z,8.35
2023-03-04T14:58:23.253Z,7.32
2023-03-04T15:01:17.837Z,7.65
2023-03-04T15:04:09.033Z,10.55
2023-03-04T15:06:56.851Z,10.75
2023-03-04T15:09:50.697Z,8.02
2023-03-04T15:12:38.844Z,10.00
2023-03-04T15:15:42.245Z,7.93
2023-03-04T15:18:31.003Z,7.75
2023-03-04T15:21:33.380Z,12.05
2023-03-04T15:24:21.623Z,7.18
2023-03-04T15:27:11.806Z,6.93
2023-03-04T15:30:02.289Z,9.52
2023-03-04T15:32:49.748Z,9.45
2023-03-04T15:35:37.255Z,11.45
2023-03-04T15:38:27.063Z,10.77
2023-03-04T15:41:19.952Z,8.18
2023-03-04T15:44:08.369Z,10.98
2023-03-04T15:46:55.901Z,7.93
2023-03-04T15:49:44.089Z,9.45
2023-03-04T15:52:33.630Z,10.32
2023-03-04T15:55:23.225Z,14.40
2023-03-04T15:58:12.530Z,11.07
2023-03-04T16:01:00.892Z,10.32
2023-03-04T16:03:48.602Z,10.90
2023-03-04T16:06:36.794Z,9.40
2023-03-04T16:09:24.474Z,9.50
2023-03-04T16:12:14.303Z,12.70
2023-03-04T16:15:01.940Z,10.88
2023-03-04T16:17:49.628Z,11.13
2023-03-04T16:20:38.967Z,12.98
2023-03-04T16:23:26.511Z,16.02
2023-03-04T16:26:16.051Z,14.85
2023-03-04T16:29:04.918Z,10.98
2023-03-04T16:31:55.136Z,11.25
2023-03-04T16:34:42.665Z,9.82
2023-03-04T16:37:30.051Z,13.90
2023-03-04T16:40:20.607Z,11.85
2023-03-04T16:43:07.999Z,14.38
2023-03-04T16:45:56.883Z,14.70
2023-03-04T16:48:44.671Z,11.65
2023-03-04T16:51:36.448Z,11.23
2023-03-04T16:54:30.436Z,9.10
2023-03-04T16:57:18.102Z,11.00
2023-03-04T17:00:08.190Z,11.90
2023-03-04T17:02:59.194Z,8.68
2023-03-04T17:05:47.854Z,10.43
2023-03-04T17:08:35.408Z,10.77
2023-03-04T17:11:24.807Z,7.38
2023-03-04T17:14:12.375Z,8.52
2023-03-04T17:16:59.783Z,10.50
2023-03-04T17:19:49.123Z,14.38
2023-03-04T17:22:37.369Z,12.57
2023-03-04T17:25:24.883Z,15.30
2023-03-04T17:28:12.397Z,14.93
2023-03-04T17:30:59.960Z,13.55
2023-03-04T17:33:48.349Z,10.23
2023-03-04T17:36:37.218Z,10.07
2023-03-04T17:39:24.926Z,11.95
2023-03-04T17:42:12.681Z,12.40
2023-03-04T17:45:00.194Z,14.15
2023-03-04T17:47:47.639Z,13.57
2023-03-04T17:50:35.231Z,9.77
2023-03-04T17:53:24.030Z,19.17
2023-03-04T17:56:13.539Z,11.43
2023-03-04T17:59:02.494Z,12.52
2023-03-04T18:01:53.927Z,10.90
2023-03-04T18:04:41.811Z,12.75
2023-03-04T18:07:29.405Z,15.18
2023-03-04T18:10:18.853Z,24.42
2023-03-04T18:13:06.783Z,20.60
2023-03-04T18:15:55.450Z,19.20
2023-03-04T18:18:43.663Z,21.17
2023-03-04T18:21:31.725Z,21.73
2023-03-04T18:24:19.401Z,17.85
2023-03-04T18:27:08.540Z,21.23
2023-03-04T18:29:56.790Z,17.45
2023-03-04T18:32:51.905Z,15.43
2023-03-04T18:35:40.187Z,17.13
2023-03-04T18:38:28.418Z,14.63
2023-03-04T18:41:17.273Z,8.40
2023-03-04T18:44:09.769Z,10.35
2023-03-04T18:46:58.966Z,17.10
2023-03-04T18:49:47.795Z,9.32
2023-03-04T18:52:36.046Z,9.77
2023-03-04T18:55:24.150Z,13.23
2023-03-04T18:58:12.740Z,10.05
2023-03-04T19:01:05.135Z,11.50
2023-03-04T19:03:54.446Z,18.55
2023-03-04T19:06:42.150Z,9.07
2023-03-04T19:09:29.931Z,11.10
2023-03-04T19:12:17.548Z,14.23
2023-03-04T19:15:06.240Z,10.10
2023-03-04T19:17:55.237Z,11.20
2023-03-04T19:20:43.562Z,18.00
2023-03-04T19:23:31.399Z,9.85
2023-03-04T19:26:18.823Z,12.68
2023-03-04T19:29:07.363Z,10.55
2023-03-04T19:31:54.611Z,11.85
2023-03-04T19:34:43.691Z,8.27
2023-03-04T19:37:31.277Z,7.43
2023-03-04T19:40:18.661Z,8.30
2023-03-04T19:43:05.996Z,6.38
2023-03-04T19:45:55.270Z,7.88
2023-03-04T19:48:45.188Z,9.43
2023-03-04T19:51:34.462Z,9.55
2023-03-04T19:54:21.715Z,7.07
2023-03-04T19:57:09.023Z,9.82
2023-03-04T19:59:56.553Z,13.55
2023-03-04T20:02:45.727Z,8.27
2023-03-04T20:05:33.069Z,11.82
2023-03-04T20:08:21.783Z,5.78
2023-03-04T20:11:13.026Z,9.02
2023-03-04T20:14:01.633Z,9.27
2023-03-04T20:16:49.483Z,11.82
2023-03-04T20:19:36.986Z,11.52
2023-03-04T20:22:24.650Z,7.00
2023-03-04T20:25:13.697Z,8.25
2023-03-04T20:28:01.367Z,10.43
2023-03-04T20:30:48.989Z,7.00
2023-03-04T20:33:36.233Z,10.77
2023-03-04T20:36:26.041Z,16.80
2023-03-04T20:39:27.954Z,13.73
2023-03-04T20:42:18.539Z,5.32
2023-03-04T20:45:08.931Z,8.65
2023-03-04T20:47:56.803Z,8.95
2023-03-04T20:50:44.805Z,6.78
2023-03-04T20:53:32.336Z,8.13
2023-03-04T20:56:19.735Z,9.23
2023-03-04T20:59:10.373Z,7.15
2023-03-04T21:01:59.417Z,7.50
2023-03-04T21:04:47.095Z,5.60
2023-03-04T21:07:34.919Z,7.63
2023-03-04T21:10:23.170Z,4.57
2023-03-04T21:13:12.829Z,6.72
2023-03-04T21:16:01.986Z,6.60
2023-03-04T21:18:49.805Z,6.85
2023-03-04T21:21:37.581Z,13.23
2023-03-04T21:24:26.455Z,5.47
2023-03-04T21:27:16.686Z,8.45
2023-03-04T21:30:04.701Z,6.40
2023-03-04T21:32:54.183Z,9.23
2023-03-04T21:35:41.752Z,7.05
2023-03-04T21:38:29.259Z,8.20
2023-03-04T21:41:19.140Z,8.75
2023-03-04T21:44:06.862Z,10.63
2023-03-04T21:46:54.422Z,11.43
2023-03-04T21:49:43.373Z,9.57
2023-03-04T21:52:31.549Z,8.52
2023-03-04T21:55:19.407Z,10.23
2023-03-04T21:58:06.801Z,14.48
2023-03-04T22:00:54.449Z,10.77
2023-03-04T22:03:41.894Z,5.88
2023-03-04T22:06:33.767Z,8.25
2023-03-04T22:09:21.292Z,8.73
2023-03-04T22:12:09.054Z,7.38
2023-03-04T22:14:56.270Z,7.05
2023-03-04T22:17:45.815Z,9.40
2023-03-04T22:20:35.530Z,8.40
2023-03-04T22:23:24.480Z,7.22
2023-03-04T22:26:14.973Z,9.38
2023-03-04T22:29:03.236Z,9.93
2023-03-04T22:31:51.087Z,9.63
2023-03-04T22:34:38.524Z,9.07
2023-03-04T22:37:26.052Z,10.50
2023-03-04T22:40:16.583Z,10.43
2023-03-04T22:43:04.534Z,8.52
2023-03-04T22:45:52.478Z,6.90
2023-03-04T22:48:39.918Z,6.00
2023-03-04T22:51:28.125Z,12.27
2023-03-04T22:54:17.031Z,4.35
2023-03-04T22:57:05.779Z,5.35
2023-03-04T22:59:53.896Z,7.28
2023-03-04T23:02:41.595Z,7.40
2023-03-04T23:05:29.471Z,5.72
2023-03-04T23:08:16.789Z,9.25
2023-03-04T23:11:08.905Z,9.00
2023-03-04T23:13:58.557Z,8.90
2023-03-04T23:16:47.430Z,7.43
2023-03-04T23:19:34.907Z,9.80
2023-03-04T23:22:22.479Z,10.20
2023-03-04T23:25:12.838Z,6.13
2023-03-04T23:28:00.211Z,5.90
2023-03-04T23:30:49.213Z,6.50
2023-03-04T23:33:37.007Z,8.75
2023-03-04T23:36:27.118Z,7.13
2023-03-04T23:39:14.689Z,5.93
2023-03-04T23:42:02.313Z,6.38
2023-03-04T23:44:50.259Z,6.82
2023-03-04T23:47:39.190Z,5.53
2023-03-04T23:50:27.029Z,4.47
2023-03-04T23:53:14.375Z,7.38
2023-03-04T23:56:01.920Z,8.77
2023-03-04T23:58:50.141Z,9.95
